Time;durP1;ratioP1;P1;durP2;ratioP2;P2;SDS_P1;SDS_P2;PMS_P1;PMS_P2;Temp;Humidity;BMP_temperature;BMP_pressure;BME280_temperature;BME280_humidity;BME280_pressure;Samples;Min_cycle;Max_cycle;Signal;HPM_P1;HPM_P2
2024/01/21 00:00:01;;;;;;;5.22;3.25;;;23.10;38.70;;;;;;6253393;27;80461;-55
2024/01/21 00:03:12;;;;;;;5.50;3.60;;;23.10;38.70;;;;;;6250902;27;80440;-52
2024/01/21 00:06:12;;;;;;;6.55;3.63;;;23.10;38.50;;;;;;6259931;27;81204;-50
2024/01/21 00:09:13;;;;;;;8.40;3.83;;;23.10;38.60;;;;;;6262661;27;82262;-55
2024/01/21 00:12:13;;;;;;;9.35;4.72;;;23.10;38.40;;;;;;6275735;27;80574;-55
2024/01/21 00:15:14;;;;;;;7.28;3.92;;;23.10;38.40;;;;;;6275161;27;81063;-51
2024/01/21 00:18:15;;;;;;;6.10;4.18;;;23.10;38.90;;;;;;6270211;27;85745;-52
2024/01/21 00:21:15;;;;;;;6.40;3.65;;;23.10;38.30;;;;;;6251793;27;83296;-53
2024/01/21 00:24:16;;;;;;;7.28;4.40;;;23.10;38.60;;;;;;6269328;27;80850;-56
2024/01/21 00:27:16;;;;;;;6.70;3.97;;;23.10;39.00;;;;;;6275651;27;80202;-50
2024/01/21 00:30:17;;;;;;;7.35;3.90;;;23.10;39.30;;;;;;6275827;27;80670;-53
2024/01/21 00:33:17;;;;;;;7.32;3.60;;;23.10;38.90;;;;;;6275555;27;80261;-52
2024/01/21 00:36:18;;;;;;;6.50;3.85;;;23.10;39.00;;;;;;6274452;27;86275;-54
2024/01/21 00:39:18;;;;;;;5.97;3.33;;;23.10;39.30;;;;;;6275985;27;81672;-56
2024/01/21 00:42:19;;;;;;;9.18;4.00;;;23.10;39.30;;;;;;6275106;27;83249;-55
2024/01/21 00:45:19;;;;;;;5.00;3.35;;;23.10;39.10;;;;;;6274623;27;80307;-57
2024/01/21 00:48:20;;;;;;;7.05;3.72;;;23.10;39.20;;;;;;6274366;27;81250;-58
2024/01/21 00:51:20;;;;;;;6.07;3.47;;;23.10;39.10;;;;;;6274495;27;80469;-57
2024/01/21 00:54:21;;;;;;;7.68;4.25;;;23.10;39.10;;;;;;6275225;27;80724;-55
2024/01/21 00:57:21;;;;;;;5.18;3.25;;;23.10;39.10;;;;;;6273424;27;80955;-57
2024/01/21 01:00:25;;;;;;;6.13;3.50;;;23.10;38.90;;;;;;6275920;27;81264;-57
2024/01/21 01:03:26;;;;;;;6.63;3.70;;;23.00;38.90;;;;;;6276163;27;81300;-57
2024/01/21 01:06:26;;;;;;;7.35;3.60;;;23.00;39.00;;;;;;6274258;27;80140;-58
2024/01/21 01:09:27;;;;;;;6.65;3.67;;;23.00;39.50;;;;;;6254769;27;80767;-57
2024/01/21 01:12:27;;;;;;;6.45;3.35;;;23.00;39.50;;;;;;6251542;27;80356;-56
2024/01/21 01:15:28;;;;;;;6.53;4.13;;;23.00;41.80;;;;;;6250519;27;81164;-55
2024/01/21 01:18:28;;;;;;;6.60;4.20;;;23.00;39.10;;;;;;6262129;27;80756;-58
2024/01/21 01:21:29;;;;;;;7.25;3.72;;;23.00;39.20;;;;;;6254796;27;81241;-55
2024/01/21 01:24:29;;;;;;;7.75;4.07;;;23.00;39.10;;;;;;6278092;27;80131;-59
2024/01/21 01:27:30;;;;;;;6.82;3.80;;;23.00;39.10;;;;;;6257959;27;80342;-62
2024/01/21 01:30:30;;;;;;;6.18;4.05;;;23.00;38.90;;;;;;6272685;27;80216;-61
2024/01/21 01:33:30;;;;;;;9.05;4.03;;;23.00;39.20;;;;;;6275156;27;81788;-63
2024/01/21 01:36:31;;;;;;;7.93;4.57;;;23.00;39.00;;;;;;6254503;27;82613;-62
2024/01/21 01:39:31;;;;;;;6.53;4.07;;;23.00;39.10;;;;;;6254320;27;80864;-61
2024/01/21 01:42:32;;;;;;;7.38;4.30;;;23.00;39.00;;;;;;6254095;27;80891;-62
2024/01/21 01:45:33;;;;;;;8.48;4.28;;;23.00;39.20;;;;;;6254210;27;80459;-53
2024/01/21 01:48:34;;;;;;;7.00;3.92;;;23.00;39.10;;;;;;6272851;27;81521;-50
2024/01/21 01:51:34;;;;;;;7.65;4.38;;;23.00;39.20;;;;;;6259046;27;80422;-53
2024/01/21 01:54:35;;;;;;;6.22;4.00;;;23.00;39.10;;;;;;6267584;27;80817;-51
2024/01/21 01:57:35;;;;;;;5.85;3.85;;;23.00;39.30;;;;;;6253673;27;81462;-50
2024/01/21 02:00:36;;;;;;;7.28;4.43;;;23.00;39.10;;;;;;6267219;27;80828;-49
2024/01/21 02:03:36;;;;;;;6.85;4.00;;;23.00;39.30;;;;;;6254500;27;80476;-66
2024/01/21 02:06:37;;;;;;;6.15;4.43;;;23.00;39.20;;;;;;6253218;27;80311;-65
2024/01/21 02:09:37;;;;;;;7.55;4.10;;;22.90;39.10;;;;;;6254243;27;80536;-67
2024/01/21 02:12:38;;;;;;;7.38;4.32;;;23.00;39.30;;;;;;6254047;27;81228;-65
2024/01/21 02:15:38;;;;;;;7.63;4.22;;;23.00;39.20;;;;;;6259334;27;80659;-65
2024/01/21 02:18:39;;;;;;;7.07;4.28;;;23.00;39.20;;;;;;6276249;27;81339;-66
2024/01/21 02:21:39;;;;;;;8.60;4.43;;;23.00;39.10;;;;;;6278546;27;80855;-64
2024/01/21 02:24:40;;;;;;;6.32;3.78;;;23.00;39.10;;;;;;6278114;27;80341;-64
2024/01/21 02:27:41;;;;;;;8.05;4.05;;;23.00;39.10;;;;;;6277559;27;80406;-65
2024/01/21 02:30:42;;;;;;;7.38;4.35;;;23.00;39.40;;;;;;6276189;27;80591;-66
2024/01/21 02:33:42;;;;;;;6.18;4.22;;;22.90;39.20;;;;;;6277172;27;80776;-65
2024/01/21 02:36:43;;;;;;;5.47;3.95;;;22.90;39.20;;;;;;6278855;27;80354;-66
2024/01/21 02:39:43;;;;;;;7.55;4.03;;;22.90;39.30;;;;;;6276257;27;80548;-63
2024/01/21 02:42:44;;;;;;;7.35;4.18;;;22.90;39.30;;;;;;6282095;27;82202;-65
2024/01/21 02:45:44;;;;;;;10.38;4.85;;;22.90;39.20;;;;;;6276076;27;80180;-66
2024/01/21 02:48:45;;;;;;;8.35;4.32;;;22.90;39.60;;;;;;6273449;27;81906;-67
2024/01/21 02:51:45;;;;;;;8.30;4.05;;;22.90;39.40;;;;;;6265480;27;81550;-69
2024/01/21 02:54:46;;;;;;;7.82;4.30;;;22.90;39.40;;;;;;6277951;27;80399;-66
2024/01/21 02:57:46;;;;;;;9.15;4.30;;;22.90;39.30;;;;;;6277679;27;80911;-70
2024/01/21 03:00:47;;;;;;;5.70;3.67;;;22.90;40.00;;;;;;6276659;27;83073;-59
2024/01/21 03:03:47;;;;;;;7.07;4.38;;;22.90;39.60;;;;;;6263316;27;80499;-57
2024/01/21 03:06:48;;;;;;;6.72;3.67;;;23.00;39.40;;;;;;6264541;27;86467;-58
2024/01/21 03:09:48;;;;;;;6.30;4.00;;;22.90;39.50;;;;;;6248190;27;80368;-58
2024/01/21 03:12:49;;;;;;;8.73;3.60;;;23.00;39.30;;;;;;6253285;27;80352;-57
2024/01/21 03:15:49;;;;;;;7.75;4.18;;;23.00;39.10;;;;;;6252307;27;80852;-57
2024/01/21 03:18:50;;;;;;;8.60;4.35;;;22.90;39.10;;;;;;6276996;27;80470;-60
2024/01/21 03:21:50;;;;;;;6.60;3.53;;;22.90;39.20;;;;;;6264152;27;80872;-60
2024/01/21 03:24:51;;;;;;;6.93;3.65;;;22.90;39.10;;;;;;6277000;27;80614;-61
2024/01/21 03:27:51;;;;;;;8.85;3.90;;;22.90;39.30;;;;;;6276022;27;81620;-61
2024/01/21 03:30:52;;;;;;;6.22;3.92;;;22.90;39.40;;;;;;6275728;27;80836;-62
2024/01/21 03:33:52;;;;;;;5.57;3.78;;;23.00;39.50;;;;;;6276212;27;80178;-61
2024/01/21 03:36:53;;;;;;;5.43;3.67;;;22.90;39.60;;;;;;6275788;27;87702;-58
2024/01/21 03:39:53;;;;;;;6.50;3.75;;;22.90;39.60;;;;;;6261724;27;80816;-57
2024/01/21 03:42:54;;;;;;;4.82;2.95;;;23.00;41.60;;;;;;6266131;27;80757;-57
2024/01/21 03:45:54;;;;;;;5.30;3.45;;;23.00;44.30;;;;;;6269476;27;80451;-55
2024/01/21 03:48:55;;;;;;;10.52;4.72;;;23.00;43.80;;;;;;6272968;27;81572;-57
2024/01/21 03:51:55;;;;;;;5.65;3.78;;;23.00;43.60;;;;;;6251673;27;81050;-57
2024/01/21 03:54:56;;;;;;;7.07;3.78;;;23.00;43.30;;;;;;6264255;27;81989;-54
2024/01/21 03:57:56;;;;;;;7.70;3.58;;;23.00;42.90;;;;;;6276842;27;79998;-55
2024/01/21 04:00:57;;;;;;;6.93;3.80;;;22.90;43.00;;;;;;6276032;27;80539;-56
2024/01/21 04:03:57;;;;;;;5.95;3.78;;;22.90;43.00;;;;;;6276444;27;82035;-55
2024/01/21 04:06:58;;;;;;;6.82;3.17;;;23.00;44.00;;;;;;6275889;27;87644;-56
2024/01/21 04:09:58;;;;;;;5.45;3.08;;;23.00;42.60;;;;;;6258265;27;80922;-54
2024/01/21 04:12:59;;;;;;;5.88;3.50;;;23.00;43.10;;;;;;6257367;27;80250;-65
2024/01/21 04:15:59;;;;;;;4.30;3.22;;;23.00;43.20;;;;;;6276894;27;80439;-65
2024/01/21 04:19:00;;;;;;;7.70;4.28;;;23.00;42.70;;;;;;6265599;27;80623;-64
2024/01/21 04:22:00;;;;;;;6.43;3.92;;;23.00;41.80;;;;;;6264327;27;81535;-67
2024/01/21 04:25:01;;;;;;;8.05;4.22;;;23.10;40.80;;;;;;6252211;27;80944;-66
2024/01/21 04:28:01;;;;;;;6.78;4.45;;;23.10;40.60;;;;;;6252193;27;81690;-68
2024/01/21 04:31:02;;;;;;;6.75;3.63;;;23.10;41.30;;;;;;6256924;27;80585;-67
2024/01/21 04:34:02;;;;;;;5.95;3.58;;;23.20;40.60;;;;;;6251799;27;80388;-68
2024/01/21 04:37:03;;;;;;;5.85;3.33;;;23.20;40.60;;;;;;6249754;27;81064;-68
2024/01/21 04:40:04;;;;;;;7.20;3.78;;;23.30;40.60;;;;;;6252248;27;80410;-69
2024/01/21 04:43:04;;;;;;;6.32;3.90;;;23.30;40.70;;;;;;6252356;27;80695;-68
2024/01/21 04:46:04;;;;;;;6.68;3.83;;;23.40;40.90;;;;;;6250168;27;80749;-67
2024/01/21 04:49:05;;;;;;;5.30;3.75;;;23.40;40.90;;;;;;6248706;27;80640;-67
2024/01/21 04:52:06;;;;;;;6.35;4.05;;;23.50;41.10;;;;;;6263523;27;80440;-69
2024/01/21 04:55:06;;;;;;;6.50;3.30;;;23.50;41.10;;;;;;6256321;27;83182;-69
2024/01/21 04:58:07;;;;;;;6.88;3.95;;;23.50;41.10;;;;;;6273877;27;80376;-70
2024/01/21 05:01:07;;;;;;;5.82;3.50;;;23.50;41.20;;;;;;6273669;27;80553;-70
2024/01/21 05:04:08;;;;;;;6.57;4.18;;;23.50;41.10;;;;;;6271055;27;80450;-67
2024/01/21 05:07:09;;;;;;;10.07;4.30;;;23.50;41.20;;;;;;6267807;27;80936;-60
2024/01/21 05:10:09;;;;;;;5.78;3.85;;;23.50;41.20;;;;;;6265563;27;80528;-62
2024/01/21 05:13:10;;;;;;;6.57;3.55;;;23.60;41.50;;;;;;6267157;27;80455;-61
2024/01/21 05:16:10;;;;;;;5.95;3.88;;;23.60;41.50;;;;;;6266497;27;80390;-61
2024/01/21 05:19:11;;;;;;;6.78;3.92;;;23.60;41.60;;;;;;6275671;27;80319;-61
2024/01/21 05:22:11;;;;;;;7.72;4.22;;;23.60;41.50;;;;;;6264489;27;80362;-61
2024/01/21 05:25:12;;;;;;;5.60;3.47;;;23.60;41.60;;;;;;6273122;27;81378;-63
2024/01/21 05:28:12;;;;;;;7.43;4.18;;;23.60;41.60;;;;;;6274929;27;80400;-56
2024/01/21 05:31:12;;;;;;;7.13;3.95;;;23.60;41.60;;;;;;6274660;27;80830;-56
2024/01/21 05:34:13;;;;;;;7.57;3.92;;;23.60;41.70;;;;;;6275362;27;81093;-56
2024/01/21 05:37:13;;;;;;;7.35;3.47;;;23.60;41.80;;;;;;6272117;27;80334;-56
2024/01/21 05:40:14;;;;;;;8.77;4.20;;;23.60;41.70;;;;;;6273138;27;80262;-54
2024/01/21 05:43:14;;;;;;;6.53;3.60;;;23.60;41.60;;;;;;6274286;27;82955;-56
2024/01/21 05:46:15;;;;;;;7.35;3.78;;;23.60;41.60;;;;;;6274204;27;83148;-61
2024/01/21 05:49:15;;;;;;;7.55;4.13;;;23.60;41.60;;;;;;6267881;27;81001;-62
2024/01/21 05:52:16;;;;;;;8.05;4.07;;;23.60;41.80;;;;;;6251652;27;81535;-61
2024/01/21 05:55:16;;;;;;;7.30;4.20;;;23.60;41.60;;;;;;6271896;27;80343;-61
2024/01/21 05:58:17;;;;;;;9.13;4.03;;;23.70;41.90;;;;;;6275382;27;81386;-62
2024/01/21 06:01:17;;;;;;;8.98;4.00;;;23.70;41.80;;;;;;6272363;27;80633;-59
2024/01/21 06:04:18;;;;;;;7.80;4.32;;;23.70;41.70;;;;;;6274039;27;80520;-58
2024/01/21 06:07:18;;;;;;;6.15;3.88;;;23.70;41.80;;;;;;6277347;27;80326;-60
2024/01/21 06:10:19;;;;;;;9.57;4.05;;;23.70;41.80;;;;;;6274768;27;80491;-58
2024/01/21 06:13:19;;;;;;;6.80;4.15;;;23.70;42.00;;;;;;6275827;27;82209;-58
2024/01/21 06:16:20;;;;;;;8.02;4.15;;;23.70;42.00;;;;;;6269788;27;80970;-59
2024/01/21 06:19:20;;;;;;;6.45;3.50;;;23.60;42.10;;;;;;6272685;27;80748;-58
2024/01/21 06:22:21;;;;;;;6.72;3.95;;;23.60;42.40;;;;;;6256492;27;83470;-62
2024/01/21 06:25:22;;;;;;;5.50;3.70;;;23.60;42.30;;;;;;6252676;27;81186;-62
2024/01/21 06:28:22;;;;;;;6.20;3.83;;;23.60;42.20;;;;;;6246446;27;81329;-61
2024/01/21 06:31:22;;;;;;;7.47;4.57;;;23.60;42.60;;;;;;6247633;27;80762;-62
2024/01/21 06:34:23;;;;;;;9.25;4.30;;;23.60;42.40;;;;;;6254331;27;80724;-60
2024/01/21 06:37:24;;;;;;;7.43;3.70;;;23.60;42.50;;;;;;6260273;27;83838;-60
2024/01/21 06:40:24;;;;;;;8.02;4.55;;;23.60;42.20;;;;;;6265802;27;80328;-64
2024/01/21 06:43:25;;;;;;;11.15;4.60;;;23.60;41.90;;;;;;6265594;27;80725;-63
2024/01/21 06:46:25;;;;;;;6.60;4.03;;;23.50;41.60;;;;;;6278719;27;80574;-61
2024/01/21 06:49:26;;;;;;;6.90;4.15;;;23.50;41.50;;;;;;6271271;27;80342;-68
2024/01/21 06:52:26;;;;;;;7.63;4.63;;;23.50;41.10;;;;;;6270878;27;80355;-64
2024/01/21 06:55:27;;;;;;;10.07;4.90;;;23.50;41.40;;;;;;6277702;27;81281;-64
2024/01/21 06:58:27;;;;;;;9.00;5.03;;;23.50;41.80;;;;;;6275935;27;83088;-63
2024/01/21 07:01:28;;;;;;;8.85;4.65;;;23.50;41.70;;;;;;6278070;27;80908;-62
2024/01/21 07:04:28;;;;;;;9.02;4.57;;;23.40;41.50;;;;;;6277259;27;80489;-64
2024/01/21 07:07:29;;;;;;;7.40;4.22;;;23.40;41.90;;;;;;6277827;27;80299;-61
2024/01/21 07:10:29;;;;;;;7.85;4.57;;;23.40;41.60;;;;;;6277361;27;80439;-65
2024/01/21 07:13:30;;;;;;;10.50;4.72;;;23.30;41.40;;;;;;6278772;27;80721;-63
2024/01/21 07:16:31;;;;;;;8.40;4.82;;;23.40;41.70;;;;;;6276411;27;80234;-62
2024/01/21 07:19:32;;;;;;;8.13;4.38;;;23.40;41.40;;;;;;6263832;27;81046;-66
2024/01/21 07:22:32;;;;;;;10.80;4.38;;;23.40;42.30;;;;;;6277705;27;81544;-65
2024/01/21 07:25:33;;;;;;;7.78;4.38;;;23.40;41.70;;;;;;6277911;27;80641;-62
2024/01/21 07:28:33;;;;;;;9.35;4.57;;;23.40;42.10;;;;;;6277002;27;80313;-65
2024/01/21 07:31:33;;;;;;;7.75;4.10;;;23.40;42.50;;;;;;6269958;27;80408;-68
2024/01/21 07:34:34;;;;;;;7.82;4.10;;;23.40;43.80;;;;;;6276817;27;80468;-63
2024/01/21 07:37:35;;;;;;;7.55;4.15;;;23.40;44.90;;;;;;6276718;27;80987;-64
2024/01/21 07:40:35;;;;;;;8.75;4.10;;;23.50;45.70;;;;;;6258871;27;80478;-64
2024/01/21 07:43:36;;;;;;;7.80;4.30;;;23.40;45.30;;;;;;6275404;27;80437;-66
2024/01/21 07:46:37;;;;;;;7.95;4.32;;;23.40;45.40;;;;;;6265636;27;80512;-62
2024/01/21 07:49:37;;;;;;;7.97;3.88;;;23.40;45.00;;;;;;6247002;27;80846;-63
2024/01/21 07:52:38;;;;;;;9.25;4.75;;;23.40;45.30;;;;;;6271675;27;80825;-63
2024/01/21 07:55:39;;;;;;;10.50;4.80;;;23.40;45.10;;;;;;6276210;27;81030;-63
2024/01/21 07:58:39;;;;;;;8.35;4.95;;;23.50;44.80;;;;;;6277205;27;80286;-64
2024/01/21 08:01:40;;;;;;;20.63;4.90;;;23.40;45.20;;;;;;6275618;27;80409;-60
2024/01/21 08:04:40;;;;;;;6.30;4.35;;;23.40;44.80;;;;;;6263533;27;81364;-61
2024/01/21 08:07:41;;;;;;;15.32;5.28;;;23.40;44.30;;;;;;6264579;27;81912;-62
2024/01/21 08:10:41;;;;;;;7.72;3.75;;;23.30;44.20;;;;;;6273784;27;80483;-59
2024/01/21 08:13:42;;;;;;;8.43;4.45;;;23.40;44.10;;;;;;6277106;27;80636;-61
2024/01/21 08:16:42;;;;;;;8.75;4.70;;;23.40;43.60;;;;;;6276441;27;81080;-62
2024/01/21 08:19:43;;;;;;;9.07;4.95;;;23.40;43.30;;;;;;6275548;27;80529;-64
2024/01/21 08:22:44;;;;;;;9.93;4.57;;;23.40;43.40;;;;;;6276997;27;80575;-63
2024/01/21 08:25:44;;;;;;;9.05;4.53;;;23.30;43.10;;;;;;6273072;27;80465;-64
2024/01/21 08:28:45;;;;;;;7.25;4.35;;;23.30;42.90;;;;;;6275497;27;80374;-63
2024/01/21 08:31:45;;;;;;;9.23;4.70;;;23.40;42.70;;;;;;6274824;27;80910;-61
2024/01/21 08:34:46;;;;;;;8.05;5.20;;;23.40;42.60;;;;;;6275155;27;80158;-61
2024/01/21 08:37:47;;;;;;;7.45;4.10;;;23.40;42.30;;;;;;6275764;27;80471;-60
2024/01/21 08:40:47;;;;;;;10.85;5.55;;;23.40;42.70;;;;;;6273866;27;80185;-60
2024/01/21 08:43:48;;;;;;;8.57;4.55;;;23.30;43.10;;;;;;6273751;27;80419;-62
2024/01/21 08:46:49;;;;;;;9.10;5.00;;;23.40;43.20;;;;;;6268766;27;89785;-60
2024/01/21 08:49:49;;;;;;;13.40;4.40;;;23.40;43.60;;;;;;6272540;27;80086;-60
2024/01/21 08:52:50;;;;;;;7.07;4.57;;;23.40;43.30;;;;;;6274087;27;85360;-59
2024/01/21 08:55:51;;;;;;;13.27;5.40;;;23.50;43.80;;;;;;6273004;27;80622;-60
2024/01/21 08:58:51;;;;;;;7.40;4.53;;;23.50;43.70;;;;;;6273344;27;82794;-59
2024/01/21 09:01:52;;;;;;;7.85;4.68;;;23.50;43.90;;;;;;6270284;27;80566;-61
2024/01/21 09:04:52;;;;;;;9.32;4.43;;;23.50;44.00;;;;;;6269969;27;82761;-58
2024/01/21 09:07:53;;;;;;;12.57;5.22;;;23.60;44.00;;;;;;6263401;27;83213;-60
2024/01/21 09:10:53;;;;;;;10.27;4.88;;;23.70;44.20;;;;;;6275223;27;80839;-58
2024/01/21 09:13:54;;;;;;;11.48;4.90;;;23.70;44.00;;;;;;6278323;27;80385;-60
2024/01/21 09:16:54;;;;;;;9.55;4.70;;;23.70;43.80;;;;;;6277458;27;81201;-59
2024/01/21 09:19:54;;;;;;;11.52;5.38;;;23.80;43.50;;;;;;6276024;27;80046;-58
2024/01/21 09:22:55;;;;;;;14.93;5.85;;;23.80;43.60;;;;;;6269976;27;80368;-59
2024/01/21 09:25:55;;;;;;;10.73;5.75;;;23.80;43.30;;;;;;6274855;27;80183;-59
2024/01/21 09:28:56;;;;;;;14.70;6.65;;;23.90;43.20;;;;;;6275924;27;81031;-56
2024/01/21 09:31:56;;;;;;;9.57;5.30;;;23.90;43.60;;;;;;6276658;27;81045;-60
2024/01/21 09:34:57;;;;;;;12.57;5.00;;;23.90;43.60;;;;;;6274559;27;82064;-52
2024/01/21 09:37:57;;;;;;;10.70;5.20;;;24.00;43.30;;;;;;6274954;27;81144;-60
2024/01/21 09:40:58;;;;;;;14.27;5.47;;;24.00;43.10;;;;;;6278624;27;86046;-61
2024/01/21 09:43:58;;;;;;;11.90;6.03;;;24.00;42.80;;;;;;6279877;27;80254;-61
2024/01/21 09:46:59;;;;;;;13.55;5.30;;;24.00;42.80;;;;;;6279964;27;80965;-58
2024/01/21 09:49:59;;;;;;;11.68;5.47;;;24.00;42.80;;;;;;6268297;27;80157;-59
2024/01/21 09:53:00;;;;;;;15.05;6.18;;;24.10;42.80;;;;;;6273855;27;80594;-58
2024/01/21 09:56:00;;;;;;;15.80;6.07;;;24.00;43.10;;;;;;6277078;27;80210;-56
2024/01/21 09:59:01;;;;;;;9.35;5.38;;;24.00;43.40;;;;;;6276224;27;81124;-55
2024/01/21 10:02:01;;;;;;;11.45;5.57;;;24.10;43.80;;;;;;6277342;27;80237;-55
2024/01/21 10:05:02;;;;;;;11.65;6.03;;;24.10;44.00;;;;;;6277662;27;80640;-53
2024/01/21 10:08:02;;;;;;;14.23;6.60;;;24.10;44.00;;;;;;6277884;27;81681;-58
2024/01/21 10:11:03;;;;;;;15.25;5.65;;;24.10;44.10;;;;;;6271442;27;83319;-55
2024/01/21 10:14:03;;;;;;;13.23;5.82;;;24.00;44.70;;;;;;6278456;27;83635;-54
2024/01/21 10:17:04;;;;;;;11.55;5.68;;;24.10;44.90;;;;;;6278953;27;80293;-54
2024/01/21 10:20:04;;;;;;;8.68;5.20;;;24.10;45.30;;;;;;6267914;27;81931;-67
2024/01/21 10:23:05;;;;;;;11.98;6.20;;;24.10;46.10;;;;;;6278658;27;80306;-64
2024/01/21 10:26:05;;;;;;;12.80;6.15;;;24.10;48.30;;;;;;6274802;27;80832;-64
2024/01/21 10:29:06;;;;;;;10.85;6.45;;;24.10;48.40;;;;;;6243561;27;88778;-62
2024/01/21 10:32:06;;;;;;;21.98;6.53;;;24.00;48.20;;;;;;6257612;27;81762;-62
2024/01/21 10:35:07;;;;;;;12.85;5.55;;;24.00;48.00;;;;;;6263447;27;81481;-64
2024/01/21 10:38:07;;;;;;;12.18;6.45;;;24.00;48.10;;;;;;6263878;27;81411;-63
2024/01/21 10:41:08;;;;;;;11.82;6.35;;;24.00;48.60;;;;;;6260877;27;82023;-59
2024/01/21 10:44:08;;;;;;;14.40;6.93;;;24.00;48.90;;;;;;6250860;27;81867;-59
2024/01/21 10:47:09;;;;;;;12.52;6.18;;;24.00;48.90;;;;;;6258535;27;81282;-60
2024/01/21 10:50:09;;;;;;;11.63;6.40;;;24.00;48.60;;;;;;6262781;27;82237;-59
2024/01/21 10:53:11;;;;;;;11.57;5.93;;;24.00;48.60;;;;;;6260915;27;81275;-59
2024/01/21 10:56:11;;;;;;;13.23;7.03;;;24.00;48.90;;;;;;6260378;27;83094;-61
2024/01/21 10:59:12;;;;;;;10.52;6.05;;;24.00;48.90;;;;;;6257495;27;83478;-61
2024/01/21 11:02:12;;;;;;;12.43;6.78;;;24.00;49.10;;;;;;6257611;27;81549;-61
2024/01/21 11:05:13;;;;;;;13.07;6.90;;;24.00;49.20;;;;;;6262304;27;83571;-61
2024/01/21 11:08:13;;;;;;;13.27;7.10;;;24.00;49.90;;;;;;6260952;27;81198;-62
2024/01/21 11:11:22;;;;;;;15.52;6.72;;;24.00;49.10;;;;;;6261972;27;81110;-63
2024/01/21 11:14:22;;;;;;;13.43;7.78;;;24.10;49.40;;;;;;6253080;27;80998;-60
2024/01/21 11:17:23;;;;;;;12.15;6.97;;;24.10;49.70;;;;;;6262670;27;83087;-55
2024/01/21 11:20:24;;;;;;;13.55;6.82;;;24.20;50.00;;;;;;6248478;27;80962;-53
2024/01/21 11:23:24;;;;;;;12.85;7.38;;;24.30;50.10;;;;;;6264534;27;80372;-56
2024/01/21 11:26:25;;;;;;;12.43;7.68;;;24.40;50.20;;;;;;6269060;27;83459;-57
2024/01/21 11:29:25;;;;;;;14.25;7.93;;;24.50;49.80;;;;;;6255655;27;80365;-56
2024/01/21 11:32:26;;;;;;;12.95;7.05;;;24.60;49.10;;;;;;6260010;27;82290;-53
2024/01/21 11:35:26;;;;;;;12.65;7.75;;;24.70;48.50;;;;;;6271283;27;82141;-56
2024/01/21 11:38:27;;;;;;;14.00;7.90;;;24.70;48.30;;;;;;6276847;27;81214;-57
2024/01/21 11:41:27;;;;;;;14.75;8.00;;;24.80;47.80;;;;;;6275650;27;80411;-56
2024/01/21 11:44:28;;;;;;;18.30;9.55;;;24.90;47.90;;;;;;6277086;27;80924;-57
2024/01/21 11:47:28;;;;;;;16.92;8.52;;;24.90;47.10;;;;;;6276219;27;81122;-55
2024/01/21 11:50:29;;;;;;;17.77;9.52;;;25.00;47.00;;;;;;6273984;27;80724;-57
2024/01/21 11:53:29;;;;;;;14.63;8.27;;;25.10;46.20;;;;;;6275025;27;80764;-64
2024/01/21 11:56:30;;;;;;;14.80;8.32;;;25.30;46.10;;;;;;6276146;27;80426;-66
2024/01/21 11:59:31;;;;;;;16.45;9.40;;;25.30;45.70;;;;;;6274783;27;80141;-65
2024/01/21 12:02:31;;;;;;;18.30;9.73;;;25.40;45.30;;;;;;6276622;27;80828;-62
2024/01/21 12:05:32;;;;;;;18.42;10.38;;;25.50;45.60;;;;;;6275724;27;83037;-64
2024/01/21 12:08:32;;;;;;;19.20;10.27;;;25.50;44.80;;;;;;6273947;27;83384;-62
2024/01/21 12:11:33;;;;;;;15.98;9.50;;;25.50;45.50;;;;;;6265874;27;85014;-60
2024/01/21 12:14:33;;;;;;;19.27;10.40;;;25.60;46.50;;;;;;6276676;27;82992;-60
2024/01/21 12:17:34;;;;;;;16.27;9.60;;;25.70;47.00;;;;;;6272978;27;83178;-62
2024/01/21 12:20:34;;;;;;;15.63;9.13;;;25.70;46.60;;;;;;6262757;27;83494;-62
2024/01/21 12:23:35;;;;;;;16.80;8.95;;;25.80;46.70;;;;;;6269539;27;81566;-61
2024/01/21 12:26:36;;;;;;;25.42;9.10;;;25.90;47.60;;;;;;6267776;27;84852;-64
2024/01/21 12:29:37;;;;;;;17.13;8.60;;;25.90;46.70;;;;;;6267187;27;80546;-63
2024/01/21 12:32:38;;;;;;;17.73;8.73;;;26.00;46.50;;;;;;6273316;27;80443;-66
2024/01/21 12:35:38;;;;;;;17.63;9.10;;;26.00;46.90;;;;;;6254413;27;81679;-66
2024/01/21 12:38:39;;;;;;;17.45;9.50;;;26.00;47.40;;;;;;6239547;28;80802;-62
2024/01/21 12:41:39;;;;;;;23.10;8.90;;;26.00;48.40;;;;;;6238118;27;80440;-61
2024/01/21 12:44:40;;;;;;;18.67;8.57;;;26.10;48.50;;;;;;6238638;27;82007;-64
2024/01/21 12:47:40;;;;;;;16.23;8.18;;;26.20;48.60;;;;;;6248880;27;80597;-52
2024/01/21 12:50:42;;;;;;;20.75;8.32;;;26.20;48.80;;;;;;6234453;28;80948;-55
2024/01/21 12:53:43;;;;;;;19.80;8.80;;;26.20;49.30;;;;;;6247938;27;83919;-53
2024/01/21 12:56:43;;;;;;;14.48;8.25;;;26.30;48.60;;;;;;6236042;27;82705;-55
2024/01/21 12:59:44;;;;;;;14.15;8.75;;;26.40;47.40;;;;;;6238915;28;80541;-55
2024/01/21 13:02:44;;;;;;;19.35;8.07;;;26.40;47.30;;;;;;6228022;28;81307;-52
2024/01/21 13:05:46;;;;;;;15.52;7.97;;;26.50;46.70;;;;;;6245787;27;82956;-64
2024/01/21 13:08:46;;;;;;;17.15;8.00;;;26.50;47.30;;;;;;6231829;27;84871;-63
2024/01/21 13:11:47;;;;;;;15.25;8.45;;;26.60;46.70;;;;;;6239689;28;80472;-64
2024/01/21 13:14:47;;;;;;;14.60;7.93;;;26.50;46.20;;;;;;6243979;27;85540;-62
2024/01/21 13:17:48;;;;;;;16.17;8.23;;;26.60;45.90;;;;;;6256442;27;81106;-63
2024/01/21 13:20:48;;;;;;;17.35;8.25;;;26.60;46.10;;;;;;6258844;28;80455;-64
2024/01/21 13:23:49;;;;;;;20.52;8.75;;;26.60;46.40;;;;;;6256032;27;81015;-54
2024/01/21 13:26:52;;;;;;;14.95;7.28;;;26.60;46.10;;;;;;6255277;28;80894;-52
2024/01/21 13:33:12;;;;;;;14.40;8.55;;;26.70;45.70;;;;;;6252660;28;81064;-54
2024/01/21 13:36:13;;;;;;;13.20;8.40;;;26.60;46.00;;;;;;6256433;27;80509;-52
2024/01/21 13:39:13;;;;;;;13.25;8.38;;;26.60;45.30;;;;;;6283042;27;81581;-52
2024/01/21 13:42:14;;;;;;;13.18;7.40;;;26.60;45.70;;;;;;6283566;27;80918;-55
2024/01/21 13:45:15;;;;;;;11.07;7.40;;;26.50;45.20;;;;;;6283423;27;80469;-51
2024/01/21 13:48:17;;;;;;;13.45;8.23;;;26.50;45.70;;;;;;6280501;27;80772;-53
2024/01/21 13:51:18;;;;;;;14.77;7.93;;;26.40;45.30;;;;;;6256010;27;80452;-54
2024/01/21 13:54:18;;;;;;;12.55;7.50;;;26.40;45.40;;;;;;6278398;27;83227;-53
2024/01/21 13:57:19;;;;;;;13.27;8.25;;;26.20;45.30;;;;;;6281139;27;80742;-54
2024/01/21 14:00:22;;;;;;;14.82;8.23;;;26.20;45.50;;;;;;6281786;27;81088;-52
2024/01/21 14:03:23;;;;;;;12.38;7.88;;;26.00;45.30;;;;;;6278380;27;81123;-55
2024/01/21 14:06:23;;;;;;;12.93;8.13;;;26.00;45.40;;;;;;6279213;27;81442;-57
2024/01/21 14:09:24;;;;;;;13.73;7.95;;;26.00;45.20;;;;;;6282119;27;82643;-55
2024/01/21 14:12:24;;;;;;;14.13;7.95;;;25.90;45.90;;;;;;6279766;27;81639;-58
2024/01/21 14:15:25;;;;;;;10.75;7.80;;;25.90;45.00;;;;;;6279641;27;81434;-58
2024/01/21 14:18:25;;;;;;;16.80;7.88;;;25.90;45.10;;;;;;6280842;27;80346;-55
2024/01/21 14:21:26;;;;;;;10.77;6.75;;;25.80;44.70;;;;;;6281406;27;80180;-56
2024/01/21 14:24:29;;;;;;;11.98;7.30;;;25.80;45.30;;;;;;6281292;27;80667;-55
2024/01/21 14:27:30;;;;;;;12.18;7.90;;;25.70;44.80;;;;;;6278655;27;81177;-57
2024/01/21 14:30:30;;;;;;;12.55;8.10;;;25.70;44.80;;;;;;6277905;27;80460;-57
2024/01/21 14:33:32;;;;;;;13.70;8.00;;;25.60;44.80;;;;;;6278609;27;80416;-58
2024/01/21 14:36:34;;;;;;;20.45;7.95;;;25.50;45.00;;;;;;6274869;27;81004;-56
2024/01/21 14:39:34;;;;;;;13.55;8.02;;;25.40;45.20;;;;;;6269968;27;80587;-54
2024/01/21 14:42:35;;;;;;;12.57;7.60;;;25.30;45.70;;;;;;6273553;27;80325;-55
2024/01/21 14:45:36;;;;;;;13.20;8.13;;;25.20;45.90;;;;;;6257267;27;86320;-55
2024/01/21 14:48:36;;;;;;;10.45;7.03;;;25.10;46.20;;;;;;6235179;27;82749;-52
2024/01/21 14:51:37;;;;;;;15.60;8.88;;;24.90;46.50;;;;;;6266530;27;83566;-56
2024/01/21 14:54:37;;;;;;;16.98;9.15;;;24.90;46.30;;;;;;6277009;27;80344;-56
2024/01/21 14:57:38;;;;;;;17.40;8.48;;;24.80;46.40;;;;;;6274522;27;80627;-57
2024/01/21 15:00:38;;;;;;;11.90;7.32;;;24.70;46.80;;;;;;6269441;27;81488;-54
2024/01/21 15:03:39;;;;;;;14.27;7.95;;;24.70;47.00;;;;;;6257734;27;86117;-52
2024/01/21 15:06:39;;;;;;;14.45;8.23;;;24.60;47.30;;;;;;6267541;27;82801;-57
2024/01/21 15:09:40;;;;;;;14.27;8.40;;;24.50;47.10;;;;;;6275252;27;80683;-58
2024/01/21 15:12:40;;;;;;;13.35;8.43;;;24.50;47.20;;;;;;6275088;27;80284;-54
2024/01/21 15:15:41;;;;;;;15.55;8.10;;;24.40;47.10;;;;;;6275654;27;80637;-56
2024/01/21 15:18:41;;;;;;;14.50;8.75;;;24.40;47.30;;;;;;6275750;27;80452;-57
2024/01/21 15:21:42;;;;;;;14.32;8.18;;;24.30;47.00;;;;;;6273677;27;80734;-52
2024/01/21 15:24:42;;;;;;;12.35;8.43;;;24.30;46.90;;;;;;6275868;27;80357;-51
2024/01/21 15:27:43;;;;;;;15.13;8.75;;;24.30;46.60;;;;;;6274324;27;80989;-53
2024/01/21 15:30:43;;;;;;;19.48;8.20;;;24.20;46.90;;;;;;6277701;27;81769;-52
2024/01/21 15:33:44;;;;;;;13.32;8.75;;;24.10;47.10;;;;;;6270205;27;81029;-55
2024/01/21 15:36:44;;;;;;;15.60;9.30;;;24.00;47.00;;;;;;6276731;27;81625;-54